Am Tubarao — A8ZA9 — position and weather

sailwx.info

Track history (hours):
 
Tides and Currents Weather Stations Pressure Air Temp Water Temp Dewpoint Dewpoint Depression Visibility Wind Speed Wind Dir Waves Ship Positions

Am Tubarao

Last reported at 2016-Jun-23 09:08 UTC. Time now 2016-Jun-29 02:03 UTC.
Position N 49°31' W 004°56'.

Length 230 m; draft 9.1 m.

Type: Cargo ship. MMSI: 636015171.

Date/timePositionNaut miles runAvg speedWind from/ knotsBaromVisibWave heightAir tempDewpointWater temp
2016-Jun-23 09:08N 49°31' W 004°56'18 9.6
2016-Jun-23 07:15N 49°37' W 004°29'18 9.7
2016-Jun-23 05:25N 49°43' W 004°04'910.7
2016-Jun-23 04:33N 49°46' W 003°50'1611.9
2016-Jun-23 03:11N 49°52' W 003°26'812.6
2016-Jun-23 02:34N 49°54' W 003°15'1212.4
2016-Jun-23 01:34N 49°59' W 002°56'1211.6
2016-Jun-23 00:34N 50°02' W 002°39'80 9.7
2016-Jun-22 16:19N 50°23' W 000°39'1013.1
2016-Jun-22 15:34N 50°26' W 000°24'1212.3
2016-Jun-22 14:33N 50°29' W 000°05'1211.6
2016-Jun-22 13:33N 50°32' E 000°12'34 9.8
2016-Jun-22 10:04N 50°47' E 001°00'510.5
2016-Jun-22 09:33N 50°50' E 001°08'1212.1
2016-Jun-22 08:33N 50°58' E 001°23'1413.6
2016-Jun-22 07:34N 51°08' E 001°37'1312.5
2016-Jun-22 06:33N 51°18' E 001°50'1010.3
2016-Jun-22 05:33N 51°26' E 002°00'1110.9
2016-Jun-22 04:33N 51°21' E 002°16'10 9.6
2016-Jun-22 03:33N 51°23' E 002°32'10 9.6
2016-Jun-22 02:34N 51°22' E 002°47'1111.0
2016-Jun-22 01:33N 51°25' E 003°04'1110.6
2016-Jun-22 00:33N 51°24' E 003°21'10 9.9
2016-Jun-21 23:34N 51°26' E 003°37'6 6.2
2016-Jun-21 22:31N 51°24' E 003°46'0 0.2
2016-Jun-21 21:31N 51°24' E 003°46'0 0.1
2016-Jun-21 20:31N 51°24' E 003°46'0 0.0
2016-Jun-21 19:31N 51°24' E 003°46'0 0.0
2016-Jun-21 18:31N 51°24' E 003°46'0 0.0
2016-Jun-21 17:31N 51°24' E 003°46'0 0.0
2016-Jun-21 16:28N 51°24' E 003°46'0 0.1
2016-Jun-21 15:31N 51°24' E 003°46'4 4.0
2016-Jun-21 14:33N 51°26' E 003°41'9 9.3
2016-Jun-21 13:33N 51°25' E 003°26'10 9.9
2016-Jun-21 12:33N 51°24' E 003°10'1110.6
2016-Jun-21 11:33N 51°22' E 002°53'9 9.2
2016-Jun-21 10:34N 51°21' E 002°39'6 5.9
2016-Jun-21 09:33N 51°22' E 002°29'5 5.3
2016-Jun-21 08:32N 51°19' E 002°22'10 9.7
2016-Jun-21 07:33N 51°15' E 002°08'19 9.6
2016-Jun-21 05:33N 51°03' E 001°44'1413.9
2016-Jun-21 04:33N 51°03' E 002°06'9 7.8
2016-Jun-21 03:26N 51°03' E 002°20'0 0.5
2016-Jun-21 02:32N 51°03' E 002°20'0 0.1
2016-Jun-21 01:32N 51°03' E 002°19'0 0.0
2016-Jun-21 00:32N 51°03' E 002°19'0 0.0
2016-Jun-20 23:26N 51°03' E 002°19'0 0.0
2016-Jun-20 22:32N 51°03' E 002°19'0 0.0
2016-Jun-20 21:26N 51°03' E 002°19'0 0.0
2016-Jun-20 20:32N 51°03' E 002°19'0 0.0
2016-Jun-20 19:29N 51°03' E 002°19'0 0.0
2016-Jun-20 18:32N 51°03' E 002°19'0 0.0
2016-Jun-20 17:32N 51°03' E 002°19'0 0.0
2016-Jun-20 14:26N 51°03' E 002°19'0 0.0
2016-Jun-20 12:05N 51°03' E 002°19'0 0.0
2016-Jun-20 11:13N 51°03' E 002°19'0 0.0
2016-Jun-20 10:28N 51°03' E 002°19'0 0.0
2016-Jun-20 09:32N 51°03' E 002°19'0 0.0
2016-Jun-20 08:31N 51°03' E 002°19'0 0.0
2016-Jun-20 05:22N 51°03' E 002°19'0 0.0
2016-Jun-19 22:25N 51°03' E 002°19'0 0.0
2016-Jun-19 21:31N 51°03' E 002°19'0 0.0
2016-Jun-19 20:13N 51°03' E 002°19'0 0.0
2016-Jun-19 19:19N 51°03' E 002°19'0 0.0
2016-Jun-19 18:28N 51°03' E 002°19'0 0.0
2016-Jun-19 17:31N 51°03' E 002°19'0 0.0
2016-Jun-19 16:31N 51°03' E 002°19'0 0.0
2016-Jun-19 15:31N 51°03' E 002°19'0 0.0
2016-Jun-19 14:31N 51°03' E 002°19'0 0.0
2016-Jun-19 13:31N 51°03' E 002°19'0 0.0
2016-Jun-19 12:31N 51°03' E 002°19'0 0.0
2016-Jun-19 11:31N 51°03' E 002°19'0 0.0
2016-Jun-19 10:31N 51°03' E 002°19'0 0.0
2016-Jun-19 09:28N 51°03' E 002°19'0 0.0
2016-Jun-19 08:16N 51°03' E 002°19'0 0.0
2016-Jun-19 07:28N 51°03' E 002°19'0 0.0
2016-Jun-19 06:31N 51°03' E 002°19'0 0.0
2016-Jun-19 05:31N 51°03' E 002°19'0 0.0
2016-Jun-19 04:28N 51°03' E 002°19'0 0.0
2016-Jun-19 03:31N 51°03' E 002°19'0 0.0
2016-Jun-19 02:31N 51°03' E 002°19'0 0.0
2016-Jun-19 01:31N 51°03' E 002°19'0 0.0
2016-Jun-19 00:22N 51°03' E 002°19'0 0.0
2016-Jun-18 23:31N 51°03' E 002°19'0 0.0
2016-Jun-18 22:28N 51°03' E 002°19'0 0.0
2016-Jun-18 21:31N 51°03' E 002°19'0 0.0
2016-Jun-18 20:13N 51°03' E 002°19'0 0.0
2016-Jun-18 19:19N 51°03' E 002°19'0 0.0
2016-Jun-18 18:31N 51°03' E 002°19'0 0.0
2016-Jun-18 17:25N 51°03' E 002°19'0 0.0
2016-Jun-18 16:28N 51°03' E 002°19'0 0.0
2016-Jun-18 15:25N 51°03' E 002°19'0 0.0
2016-Jun-18 14:25N 51°03' E 002°19'0 0.4
2016-Jun-18 13:33N 51°03' E 002°20'1 0.7
2016-Jun-18 12:26N 51°03' E 002°21'5 5.7
2016-Jun-18 11:33N 51°03' E 002°13'1110.9
2016-Jun-18 10:33N 51°02' E 001°56'5 4.5
2016-Jun-18 09:33N 51°03' E 001°49'0 0.1
2016-Jun-18 08:33N 51°03' E 001°49'0 0.3
2016-Jun-18 07:33N 51°03' E 001°49'0 0.0
2016-Jun-18 06:33N 51°03' E 001°48'0 0.0
2016-Jun-18 05:32N 51°03' E 001°48'0 0.0
2016-Jun-18 04:30N 51°03' E 001°48'0 0.0
2016-Jun-18 03:32N 51°03' E 001°48'0 0.2
2016-Jun-18 02:32N 51°03' E 001°49'0 0.0
2016-Jun-18 01:29N 51°03' E 001°49'0 0.0
2016-Jun-18 00:32N 51°03' E 001°49'0 0.0
2016-Jun-17 23:32N 51°03' E 001°49'0 0.0
2016-Jun-17 22:33N 51°03' E 001°49'0 0.0
2016-Jun-17 21:32N 51°03' E 001°49'0 0.0
2016-Jun-17 20:29N 51°03' E 001°49'0 0.3
2016-Jun-17 19:33N 51°03' E 001°49'0 0.0
2016-Jun-17 18:32N 51°03' E 001°48'0 0.0
2016-Jun-17 17:32N 51°03' E 001°48'0 0.0
2016-Jun-17 16:32N 51°03' E 001°48'0 0.0
2016-Jun-17 15:32N 51°03' E 001°49'0 0.0
2016-Jun-17 14:32N 51°03' E 001°49'0 0.2
2016-Jun-17 13:32N 51°03' E 001°49'0 0.0
2016-Jun-17 12:30N 51°03' E 001°49'0 0.0
2016-Jun-17 11:33N 51°03' E 001°49'0 0.0
2016-Jun-17 10:32N 51°03' E 001°49'0 0.0
2016-Jun-17 09:29N 51°03' E 001°49'0 0.0
2016-Jun-17 08:33N 51°03' E 001°49'2 2.2
2016-Jun-17 07:33N 51°02' E 001°46'9 9.2
2016-Jun-17 06:34N 50°57' E 001°33'58 6.5
2016-Jun-16 21:33N 50°22' E 000°20'8 8.2
2016-Jun-16 20:33N 50°20' E 000°08'9 8.9
2016-Jun-16 19:33N 50°18' W 000°06'10 9.7
2016-Jun-16 18:31N 50°15' W 000°21'41 9.7
2016-Jun-16 14:16N 50°04' W 001°23'7 9.2
2016-Jun-16 13:28N 50°02' W 001°34'42 6.6
2016-Jun-16 07:05N 49°51' W 002°37'5 9.5
2016-Jun-16 06:33N 49°50' W 002°45'1010.1
2016-Jun-16 05:33N 49°48' W 003°00'1010.1
2016-Jun-16 04:33N 49°46' W 003°16'1010.0
2016-Jun-16 03:33N 49°43' W 003°31'11 9.8
2016-Jun-16 02:24N 49°41' W 003°48'1110.0
2016-Jun-16 01:19N 49°38' W 004°04'  
Track history (hours):
 
Tides and Currents Weather Stations Pressure Air Temp Water Temp Dewpoint Dewpoint Depression Visibility Wind Speed Wind Dir Waves Ship Positions

Am Tubarao

Last reported at 2016-Jun-23 09:08 UTC. Time now 2016-Jun-29 02:03 UTC.
Position N 49°31' W 004°56'.

Length 230 m; draft 9.1 m.

Type: Cargo ship. MMSI: 636015171.

Date/timePositionNaut miles runAvg speedWind from/ knotsBaromVisibWave heightAir tempDewpointWater temp
2016-Jun-23 09:08N 49°31' W 004°56'18 9.6
2016-Jun-23 07:15N 49°37' W 004°29'18 9.7
2016-Jun-23 05:25N 49°43' W 004°04'910.7
2016-Jun-23 04:33N 49°46' W 003°50'1611.9
2016-Jun-23 03:11N 49°52' W 003°26'812.6
2016-Jun-23 02:34N 49°54' W 003°15'1212.4
2016-Jun-23 01:34N 49°59' W 002°56'1211.6
2016-Jun-23 00:34N 50°02' W 002°39'80 9.7
2016-Jun-22 16:19N 50°23' W 000°39'1013.1
2016-Jun-22 15:34N 50°26' W 000°24'1212.3
2016-Jun-22 14:33N 50°29' W 000°05'1211.6
2016-Jun-22 13:33N 50°32' E 000°12'34 9.8
2016-Jun-22 10:04N 50°47' E 001°00'510.5
2016-Jun-22 09:33N 50°50' E 001°08'1212.1
2016-Jun-22 08:33N 50°58' E 001°23'1413.6
2016-Jun-22 07:34N 51°08' E 001°37'1312.5
2016-Jun-22 06:33N 51°18' E 001°50'1010.3
2016-Jun-22 05:33N 51°26' E 002°00'1110.9
2016-Jun-22 04:33N 51°21' E 002°16'10 9.6
2016-Jun-22 03:33N 51°23' E 002°32'10 9.6
2016-Jun-22 02:34N 51°22' E 002°47'1111.0
2016-Jun-22 01:33N 51°25' E 003°04'1110.6
2016-Jun-22 00:33N 51°24' E 003°21'10 9.9
2016-Jun-21 23:34N 51°26' E 003°37'6 6.2
2016-Jun-21 22:31N 51°24' E 003°46'0 0.2
2016-Jun-21 21:31N 51°24' E 003°46'0 0.1
2016-Jun-21 20:31N 51°24' E 003°46'0 0.0
2016-Jun-21 19:31N 51°24' E 003°46'0 0.0
2016-Jun-21 18:31N 51°24' E 003°46'0 0.0
2016-Jun-21 17:31N 51°24' E 003°46'0 0.0
2016-Jun-21 16:28N 51°24' E 003°46'0 0.1
2016-Jun-21 15:31N 51°24' E 003°46'4 4.0
2016-Jun-21 14:33N 51°26' E 003°41'9 9.3
2016-Jun-21 13:33N 51°25' E 003°26'10 9.9
2016-Jun-21 12:33N 51°24' E 003°10'1110.6
2016-Jun-21 11:33N 51°22' E 002°53'9 9.2
2016-Jun-21 10:34N 51°21' E 002°39'6 5.9
2016-Jun-21 09:33N 51°22' E 002°29'5 5.3
2016-Jun-21 08:32N 51°19' E 002°22'10 9.7
2016-Jun-21 07:33N 51°15' E 002°08'19 9.6
2016-Jun-21 05:33N 51°03' E 001°44'1413.9
2016-Jun-21 04:33N 51°03' E 002°06'9 7.8
2016-Jun-21 03:26N 51°03' E 002°20'0 0.5
2016-Jun-21 02:32N 51°03' E 002°20'0 0.1
2016-Jun-21 01:32N 51°03' E 002°19'0 0.0
2016-Jun-21 00:32N 51°03' E 002°19'0 0.0
2016-Jun-20 23:26N 51°03' E 002°19'0 0.0
2016-Jun-20 22:32N 51°03' E 002°19'0 0.0
2016-Jun-20 21:26N 51°03' E 002°19'0 0.0
2016-Jun-20 20:32N 51°03' E 002°19'0 0.0
2016-Jun-20 19:29N 51°03' E 002°19'0 0.0
2016-Jun-20 18:32N 51°03' E 002°19'0 0.0
2016-Jun-20 17:32N 51°03' E 002°19'0 0.0
2016-Jun-20 14:26N 51°03' E 002°19'0 0.0
2016-Jun-20 12:05N 51°03' E 002°19'0 0.0
2016-Jun-20 11:13N 51°03' E 002°19'0 0.0
2016-Jun-20 10:28N 51°03' E 002°19'0 0.0
2016-Jun-20 09:32N 51°03' E 002°19'0 0.0
2016-Jun-20 08:31N 51°03' E 002°19'0 0.0
2016-Jun-20 05:22N 51°03' E 002°19'0 0.0
2016-Jun-19 22:25N 51°03' E 002°19'0 0.0
2016-Jun-19 21:31N 51°03' E 002°19'0 0.0
2016-Jun-19 20:13N 51°03' E 002°19'0 0.0
2016-Jun-19 19:19N 51°03' E 002°19'0 0.0
2016-Jun-19 18:28N 51°03' E 002°19'0 0.0
2016-Jun-19 17:31N 51°03' E 002°19'0 0.0
2016-Jun-19 16:31N 51°03' E 002°19'0 0.0
2016-Jun-19 15:31N 51°03' E 002°19'0 0.0
2016-Jun-19 14:31N 51°03' E 002°19'0 0.0
2016-Jun-19 13:31N 51°03' E 002°19'0 0.0
2016-Jun-19 12:31N 51°03' E 002°19'0 0.0
2016-Jun-19 11:31N 51°03' E 002°19'0 0.0
2016-Jun-19 10:31N 51°03' E 002°19'0 0.0
2016-Jun-19 09:28N 51°03' E 002°19'0 0.0
2016-Jun-19 08:16N 51°03' E 002°19'0 0.0
2016-Jun-19 07:28N 51°03' E 002°19'0 0.0
2016-Jun-19 06:31N 51°03' E 002°19'0 0.0
2016-Jun-19 05:31N 51°03' E 002°19'0 0.0
2016-Jun-19 04:28N 51°03' E 002°19'0 0.0
2016-Jun-19 03:31N 51°03' E 002°19'0 0.0
2016-Jun-19 02:31N 51°03' E 002°19'0 0.0
2016-Jun-19 01:31N 51°03' E 002°19'0 0.0
2016-Jun-19 00:22N 51°03' E 002°19'0 0.0
2016-Jun-18 23:31N 51°03' E 002°19'0 0.0
2016-Jun-18 22:28N 51°03' E 002°19'0 0.0
2016-Jun-18 21:31N 51°03' E 002°19'0 0.0
2016-Jun-18 20:13N 51°03' E 002°19'0 0.0
2016-Jun-18 19:19N 51°03' E 002°19'0 0.0
2016-Jun-18 18:31N 51°03' E 002°19'0 0.0
2016-Jun-18 17:25N 51°03' E 002°19'0 0.0
2016-Jun-18 16:28N 51°03' E 002°19'0 0.0
2016-Jun-18 15:25N 51°03' E 002°19'0 0.0
2016-Jun-18 14:25N 51°03' E 002°19'0 0.4
2016-Jun-18 13:33N 51°03' E 002°20'1 0.7
2016-Jun-18 12:26N 51°03' E 002°21'5 5.7
2016-Jun-18 11:33N 51°03' E 002°13'1110.9
2016-Jun-18 10:33N 51°02' E 001°56'5 4.5
2016-Jun-18 09:33N 51°03' E 001°49'0 0.1
2016-Jun-18 08:33N 51°03' E 001°49'0 0.3
2016-Jun-18 07:33N 51°03' E 001°49'0 0.0
2016-Jun-18 06:33N 51°03' E 001°48'0 0.0
2016-Jun-18 05:32N 51°03' E 001°48'0 0.0
2016-Jun-18 04:30N 51°03' E 001°48'0 0.0
2016-Jun-18 03:32N 51°03' E 001°48'0 0.2
2016-Jun-18 02:32N 51°03' E 001°49'0 0.0
2016-Jun-18 01:29N 51°03' E 001°49'0 0.0
2016-Jun-18 00:32N 51°03' E 001°49'0 0.0
2016-Jun-17 23:32N 51°03' E 001°49'0 0.0
2016-Jun-17 22:33N 51°03' E 001°49'0 0.0
2016-Jun-17 21:32N 51°03' E 001°49'0 0.0
2016-Jun-17 20:29N 51°03' E 001°49'0 0.3
2016-Jun-17 19:33N 51°03' E 001°49'0 0.0
2016-Jun-17 18:32N 51°03' E 001°48'0 0.0
2016-Jun-17 17:32N 51°03' E 001°48'0 0.0
2016-Jun-17 16:32N 51°03' E 001°48'0 0.0
2016-Jun-17 15:32N 51°03' E 001°49'0 0.0
2016-Jun-17 14:32N 51°03' E 001°49'0 0.2
2016-Jun-17 13:32N 51°03' E 001°49'0 0.0
2016-Jun-17 12:30N 51°03' E 001°49'0 0.0
2016-Jun-17 11:33N 51°03' E 001°49'0 0.0
2016-Jun-17 10:32N 51°03' E 001°49'0 0.0
2016-Jun-17 09:29N 51°03' E 001°49'0 0.0
2016-Jun-17 08:33N 51°03' E 001°49'2 2.2
2016-Jun-17 07:33N 51°02' E 001°46'9 9.2
2016-Jun-17 06:34N 50°57' E 001°33'58 6.5
2016-Jun-16 21:33N 50°22' E 000°20'8 8.2
2016-Jun-16 20:33N 50°20' E 000°08'9 8.9
2016-Jun-16 19:33N 50°18' W 000°06'10 9.7
2016-Jun-16 18:31N 50°15' W 000°21'41 9.7
2016-Jun-16 14:16N 50°04' W 001°23'7 9.2
2016-Jun-16 13:28N 50°02' W 001°34'42 6.6
2016-Jun-16 07:05N 49°51' W 002°37'5 9.5
2016-Jun-16 06:33N 49°50' W 002°45'1010.1
2016-Jun-16 05:33N 49°48' W 003°00'1010.1
2016-Jun-16 04:33N 49°46' W 003°16'1010.0
2016-Jun-16 03:33N 49°43' W 003°31'11 9.8
2016-Jun-16 02:24N 49°41' W 003°48'1110.0
2016-Jun-16 01:19N 49°38' W 004°04'  

Dump ship's entire track history